sensor_id;sensor_type;location;lat;lon;timestamp;temperature;humidity
50556;DHT22;36508;52.512;13.450;2022-11-20T00:00:34;1.10;99.90
50556;DHT22;36508;52.512;13.450;2022-11-20T00:03:00;1.20;99.90
50556;DHT22;36508;52.512;13.450;2022-11-20T00:05:26;1.20;99.90
50556;DHT22;36508;52.512;13.450;2022-11-20T00:07:51;1.10;99.90
50556;DHT22;36508;52.512;13.450;2022-11-20T00:10:17;1.10;99.90
50556;DHT22;36508;52.512;13.450;2022-11-20T00:12:42;1.10;99.90
50556;DHT22;36508;52.512;13.450;2022-11-20T00:15:08;1.10;99.90
50556;DHT22;36508;52.512;13.450;2022-11-20T00:17:35;1.10;99.90
50556;DHT22;36508;52.512;13.450;2022-11-20T00:20:00;1.00;99.90
50556;DHT22;36508;52.512;13.450;2022-11-20T00:22:26;1.00;99.90
50556;DHT22;36508;52.512;13.450;2022-11-20T00:24:52;1.00;99.90
50556;DHT22;36508;52.512;13.450;2022-11-20T00:27:17;1.10;99.90
50556;DHT22;36508;52.512;13.450;2022-11-20T00:29:43;1.20;99.90
50556;DHT22;36508;52.512;13.450;2022-11-20T00:32:08;1.10;99.90
50556;DHT22;36508;52.512;13.450;2022-11-20T00:34:34;1.10;99.90
50556;DHT22;36508;52.512;13.450;2022-11-20T00:36:59;1.10;99.90
50556;DHT22;36508;52.512;13.450;2022-11-20T00:39:25;1.10;99.90
50556;DHT22;36508;52.512;13.450;2022-11-20T00:41:51;1.20;99.90
50556;DHT22;36508;52.512;13.450;2022-11-20T00:44:16;1.20;99.90
50556;DHT22;36508;52.512;13.450;2022-11-20T00:46:42;1.10;99.90
50556;DHT22;36508;52.512;13.450;2022-11-20T00:49:07;1.10;99.90
50556;DHT22;36508;52.512;13.450;2022-11-20T00:51:33;1.00;99.90
50556;DHT22;36508;52.512;13.450;2022-11-20T00:53:58;1.10;99.90
50556;DHT22;36508;52.512;13.450;2022-11-20T00:56:25;1.00;99.90
50556;DHT22;36508;52.512;13.450;2022-11-20T00:58:51;1.10;99.90
50556;DHT22;36508;52.512;13.450;2022-11-20T01:01:17;1.10;99.90
50556;DHT22;36508;52.512;13.450;2022-11-20T01:03:45;1.20;99.90
50556;DHT22;36508;52.512;13.450;2022-11-20T01:06:23;1.20;99.90
50556;DHT22;36508;52.512;13.450;2022-11-20T01:08:50;1.10;99.90
50556;DHT22;36508;52.512;13.450;2022-11-20T01:11:18;1.10;99.90
50556;DHT22;36508;52.512;13.450;2022-11-20T01:13:46;1.10;99.90
50556;DHT22;36508;52.512;13.450;2022-11-20T01:16:24;1.20;99.90
50556;DHT22;36508;52.512;13.450;2022-11-20T01:18:53;1.10;99.90
50556;DHT22;36508;52.512;13.450;2022-11-20T01:21:21;1.20;99.90
50556;DHT22;36508;52.512;13.450;2022-11-20T01:23:48;1.10;99.90
50556;DHT22;36508;52.512;13.450;2022-11-20T01:26:16;1.10;99.90
50556;DHT22;36508;52.512;13.450;2022-11-20T01:28:43;1.10;99.90
50556;DHT22;36508;52.512;13.450;2022-11-20T01:31:38;1.10;99.90
50556;DHT22;36508;52.512;13.450;2022-11-20T01:34:10;1.10;99.90
50556;DHT22;36508;52.512;13.450;2022-11-20T01:36:37;1.10;99.90
50556;DHT22;36508;52.512;13.450;2022-11-20T01:39:10;1.10;99.90
50556;DHT22;36508;52.512;13.450;2022-11-20T01:41:36;1.10;99.90
50556;DHT22;36508;52.512;13.450;2022-11-20T01:44:39;1.00;99.90
50556;DHT22;36508;52.512;13.450;2022-11-20T01:47:09;1.00;99.90
50556;DHT22;36508;52.512;13.450;2022-11-20T01:49:42;1.10;99.90
50556;DHT22;36508;52.512;13.450;2022-11-20T01:54:49;1.10;99.90
50556;DHT22;36508;52.512;13.450;2022-11-20T01:57:17;1.10;99.90
50556;DHT22;36508;52.512;13.450;2022-11-20T02:00:20;1.20;99.90
50556;DHT22;36508;52.512;13.450;2022-11-20T02:02:41;1.20;99.90
50556;DHT22;36508;52.512;13.450;2022-11-20T02:05:35;1.30;99.90
50556;DHT22;36508;52.512;13.450;2022-11-20T02:08:03;1.50;99.90
50556;DHT22;36508;52.512;13.450;2022-11-20T02:10:30;1.50;99.90
50556;DHT22;36508;52.512;13.450;2022-11-20T02:12:56;1.50;99.90
50556;DHT22;36508;52.512;13.450;2022-11-20T02:15:41;1.30;99.90
50556;DHT22;36508;52.512;13.450;2022-11-20T02:18:07;1.40;99.90
50556;DHT22;36508;52.512;13.450;2022-11-20T02:20:34;1.40;99.90
50556;DHT22;36508;52.512;13.450;2022-11-20T02:23:08;1.40;99.90
50556;DHT22;36508;52.512;13.450;2022-11-20T02:25:35;1.30;99.90
50556;DHT22;36508;52.512;13.450;2022-11-20T02:28:02;1.30;99.90
50556;DHT22;36508;52.512;13.450;2022-11-20T02:30:28;1.20;99.90
50556;DHT22;36508;52.512;13.450;2022-11-20T02:32:54;1.20;99.90
50556;DHT22;36508;52.512;13.450;2022-11-20T02:37:48;1.10;99.90
50556;DHT22;36508;52.512;13.450;2022-11-20T02:40:14;1.00;99.90
50556;DHT22;36508;52.512;13.450;2022-11-20T02:42:40;1.00;99.90
50556;DHT22;36508;52.512;13.450;2022-11-20T02:45:06;1.00;99.90
50556;DHT22;36508;52.512;13.450;2022-11-20T02:47:31;1.00;99.90
50556;DHT22;36508;52.512;13.450;2022-11-20T02:49:57;0.90;99.90
50556;DHT22;36508;52.512;13.450;2022-11-20T02:52:23;0.90;99.90
50556;DHT22;36508;52.512;13.450;2022-11-20T02:54:49;0.90;99.90
50556;DHT22;36508;52.512;13.450;2022-11-20T02:57:14;0.90;99.90
50556;DHT22;36508;52.512;13.450;2022-11-20T02:59:40;0.90;99.90
50556;DHT22;36508;52.512;13.450;2022-11-20T03:02:06;0.90;99.90
50556;DHT22;36508;52.512;13.450;2022-11-20T03:04:31;0.90;99.90
50556;DHT22;36508;52.512;13.450;2022-11-20T03:06:57;0.90;99.90
50556;DHT22;36508;52.512;13.450;2022-11-20T03:09:23;0.80;99.90
50556;DHT22;36508;52.512;13.450;2022-11-20T03:11:48;0.80;99.90
50556;DHT22;36508;52.512;13.450;2022-11-20T03:14:14;0.70;99.90
50556;DHT22;36508;52.512;13.450;2022-11-20T03:16:39;0.70;99.90
50556;DHT22;36508;52.512;13.450;2022-11-20T03:19:05;0.70;99.90
50556;DHT22;36508;52.512;13.450;2022-11-20T03:21:33;0.80;99.90
50556;DHT22;36508;52.512;13.450;2022-11-20T03:23:59;0.70;99.90
50556;DHT22;36508;52.512;13.450;2022-11-20T03:26:26;0.70;99.90
50556;DHT22;36508;52.512;13.450;2022-11-20T03:28:58;0.80;99.90
50556;DHT22;36508;52.512;13.450;2022-11-20T03:31:27;0.70;99.90
50556;DHT22;36508;52.512;13.450;2022-11-20T03:33:52;0.70;99.90
50556;DHT22;36508;52.512;13.450;2022-11-20T03:36:19;0.80;99.90
50556;DHT22;36508;52.512;13.450;2022-11-20T03:38:46;0.80;99.90
50556;DHT22;36508;52.512;13.450;2022-11-20T03:41:15;0.80;99.90
50556;DHT22;36508;52.512;13.450;2022-11-20T03:43:41;0.80;99.90
50556;DHT22;36508;52.512;13.450;2022-11-20T03:46:07;0.80;99.90
50556;DHT22;36508;52.512;13.450;2022-11-20T03:48:33;0.80;99.90
50556;DHT22;36508;52.512;13.450;2022-11-20T03:51:23;0.80;99.90
50556;DHT22;36508;52.512;13.450;2022-11-20T03:53:50;0.80;99.90
50556;DHT22;36508;52.512;13.450;2022-11-20T03:56:18;0.80;99.90
50556;DHT22;36508;52.512;13.450;2022-11-20T03:58:44;0.80;99.90
50556;DHT22;36508;52.512;13.450;2022-11-20T04:01:21;0.80;99.90
50556;DHT22;36508;52.512;13.450;2022-11-20T04:03:48;0.70;99.90
50556;DHT22;36508;52.512;13.450;2022-11-20T04:06:17;0.70;99.90
50556;DHT22;36508;52.512;13.450;2022-11-20T04:08:43;0.80;99.90
50556;DHT22;36508;52.512;13.450;2022-11-20T04:11:10;0.80;99.90
50556;DHT22;36508;52.512;13.450;2022-11-20T04:13:36;0.80;99.90
50556;DHT22;36508;52.512;13.450;2022-11-20T04:16:02;0.80;99.90
50556;DHT22;36508;52.512;13.450;2022-11-20T04:18:28;0.80;99.90
50556;DHT22;36508;52.512;13.450;2022-11-20T04:20:53;0.80;99.90
50556;DHT22;36508;52.512;13.450;2022-11-20T04:23:19;0.80;99.90
50556;DHT22;36508;52.512;13.450;2022-11-20T04:25:44;0.80;99.90
50556;DHT22;36508;52.512;13.450;2022-11-20T04:28:10;0.90;99.90
50556;DHT22;36508;52.512;13.450;2022-11-20T04:30:35;0.80;99.90
50556;DHT22;36508;52.512;13.450;2022-11-20T04:33:01;0.80;99.90
50556;DHT22;36508;52.512;13.450;2022-11-20T04:35:27;0.70;99.90
50556;DHT22;36508;52.512;13.450;2022-11-20T04:37:52;0.70;99.90
50556;DHT22;36508;52.512;13.450;2022-11-20T04:40:18;0.70;99.90
50556;DHT22;36508;52.512;13.450;2022-11-20T04:42:43;0.70;99.90
50556;DHT22;36508;52.512;13.450;2022-11-20T04:45:09;0.70;99.90
50556;DHT22;36508;52.512;13.450;2022-11-20T04:47:35;0.70;99.90
50556;DHT22;36508;52.512;13.450;2022-11-20T04:50:00;0.70;99.90
50556;DHT22;36508;52.512;13.450;2022-11-20T04:52:26;0.60;99.90
50556;DHT22;36508;52.512;13.450;2022-11-20T04:54:51;0.50;99.90
50556;DHT22;36508;52.512;13.450;2022-11-20T04:57:20;0.60;99.90
50556;DHT22;36508;52.512;13.450;2022-11-20T04:59:45;0.60;99.90
50556;DHT22;36508;52.512;13.450;2022-11-20T05:02:11;0.60;99.90
50556;DHT22;36508;52.512;13.450;2022-11-20T05:04:37;0.60;99.90
50556;DHT22;36508;52.512;13.450;2022-11-20T05:07:03;0.60;99.90
50556;DHT22;36508;52.512;13.450;2022-11-20T05:09:29;0.70;99.90
50556;DHT22;36508;52.512;13.450;2022-11-20T05:11:54;0.60;99.90
50556;DHT22;36508;52.512;13.450;2022-11-20T05:14:20;0.60;99.90
50556;DHT22;36508;52.512;13.450;2022-11-20T05:16:45;0.70;99.90
50556;DHT22;36508;52.512;13.450;2022-11-20T05:19:11;0.60;99.90
50556;DHT22;36508;52.512;13.450;2022-11-20T05:21:37;0.70;99.90
50556;DHT22;36508;52.512;13.450;2022-11-20T05:24:03;0.60;99.90
50556;DHT22;36508;52.512;13.450;2022-11-20T05:26:28;0.60;99.90
50556;DHT22;36508;52.512;13.450;2022-11-20T05:28:54;0.60;99.90
50556;DHT22;36508;52.512;13.450;2022-11-20T05:31:21;0.60;99.90
50556;DHT22;36508;52.512;13.450;2022-11-20T05:33:47;0.60;99.90
50556;DHT22;36508;52.512;13.450;2022-11-20T05:36:14;0.60;99.90
50556;DHT22;36508;52.512;13.450;2022-11-20T05:38:40;0.50;99.90
50556;DHT22;36508;52.512;13.450;2022-11-20T05:41:15;0.60;99.90
50556;DHT22;36508;52.512;13.450;2022-11-20T05:43:42;0.70;99.90
50556;DHT22;36508;52.512;13.450;2022-11-20T05:46:10;0.70;99.90
50556;DHT22;36508;52.512;13.450;2022-11-20T05:48:37;0.70;99.90
50556;DHT22;36508;52.512;13.450;2022-11-20T05:51:05;0.70;99.90
50556;DHT22;36508;52.512;13.450;2022-11-20T05:53:33;0.70;99.90
50556;DHT22;36508;52.512;13.450;2022-11-20T05:56:05;0.70;99.90
50556;DHT22;36508;52.512;13.450;2022-11-20T05:58:31;0.70;99.90
50556;DHT22;36508;52.512;13.450;2022-11-20T06:03:36;0.70;99.90
50556;DHT22;36508;52.512;13.450;2022-11-20T06:06:03;0.70;99.90
50556;DHT22;36508;52.512;13.450;2022-11-20T06:08:30;0.80;99.90
50556;DHT22;36508;52.512;13.450;2022-11-20T06:10:56;0.90;99.90
50556;DHT22;36508;52.512;13.450;2022-11-20T06:13:22;0.90;99.90
50556;DHT22;36508;52.512;13.450;2022-11-20T06:15:52;1.00;99.90
50556;DHT22;36508;52.512;13.450;2022-11-20T06:18:18;1.00;99.90
50556;DHT22;36508;52.512;13.450;2022-11-20T06:20:45;1.10;99.90
50556;DHT22;36508;52.512;13.450;2022-11-20T06:23:10;1.20;99.90
50556;DHT22;36508;52.512;13.450;2022-11-20T06:25:41;1.10;99.90
50556;DHT22;36508;52.512;13.450;2022-11-20T06:28:07;1.10;99.90
50556;DHT22;36508;52.512;13.450;2022-11-20T06:30:33;1.00;99.90
50556;DHT22;36508;52.512;13.450;2022-11-20T06:32:58;0.90;99.90
50556;DHT22;36508;52.512;13.450;2022-11-20T06:35:24;0.80;99.90
50556;DHT22;36508;52.512;13.450;2022-11-20T06:37:50;0.70;99.90
50556;DHT22;36508;52.512;13.450;2022-11-20T06:40:15;0.70;99.90
50556;DHT22;36508;52.512;13.450;2022-11-20T06:42:41;0.80;99.90
50556;DHT22;36508;52.512;13.450;2022-11-20T06:45:07;0.80;99.90
50556;DHT22;36508;52.512;13.450;2022-11-20T06:47:33;0.80;99.90
50556;DHT22;36508;52.512;13.450;2022-11-20T06:49:59;0.80;99.90
50556;DHT22;36508;52.512;13.450;2022-11-20T06:52:25;0.80;99.90
50556;DHT22;36508;52.512;13.450;2022-11-20T06:54:50;0.80;99.90
50556;DHT22;36508;52.512;13.450;2022-11-20T06:57:16;0.80;99.90
50556;DHT22;36508;52.512;13.450;2022-11-20T06:59:41;0.90;99.90
50556;DHT22;36508;52.512;13.450;2022-11-20T07:02:11;0.80;99.90
50556;DHT22;36508;52.512;13.450;2022-11-20T07:04:38;0.80;99.90
50556;DHT22;36508;52.512;13.450;2022-11-20T07:07:06;0.80;99.90
50556;DHT22;36508;52.512;13.450;2022-11-20T07:09:32;0.80;99.90
50556;DHT22;36508;52.512;13.450;2022-11-20T07:11:59;0.80;99.90
50556;DHT22;36508;52.512;13.450;2022-11-20T07:14:24;0.80;99.90
50556;DHT22;36508;52.512;13.450;2022-11-20T07:16:50;1.00;99.90
50556;DHT22;36508;52.512;13.450;2022-11-20T07:19:15;0.90;99.90
50556;DHT22;36508;52.512;13.450;2022-11-20T07:21:41;1.00;99.90
50556;DHT22;36508;52.512;13.450;2022-11-20T07:24:06;0.90;99.90
50556;DHT22;36508;52.512;13.450;2022-11-20T07:27:05;0.90;99.90
50556;DHT22;36508;52.512;13.450;2022-11-20T07:29:33;0.80;99.90
50556;DHT22;36508;52.512;13.450;2022-11-20T07:31:58;0.80;99.90
50556;DHT22;36508;52.512;13.450;2022-11-20T07:34:24;0.80;99.90
50556;DHT22;36508;52.512;13.450;2022-11-20T07:36:50;0.80;99.90
50556;DHT22;36508;52.512;13.450;2022-11-20T07:39:15;0.70;99.90
50556;DHT22;36508;52.512;13.450;2022-11-20T07:41:41;0.70;99.90
50556;DHT22;36508;52.512;13.450;2022-11-20T07:44:06;0.80;99.90
50556;DHT22;36508;52.512;13.450;2022-11-20T07:46:32;0.80;99.90
50556;DHT22;36508;52.512;13.450;2022-11-20T07:48:57;0.80;99.90
50556;DHT22;36508;52.512;13.450;2022-11-20T07:51:23;0.80;99.90
50556;DHT22;36508;52.512;13.450;2022-11-20T07:53:52;0.70;99.90
50556;DHT22;36508;52.512;13.450;2022-11-20T07:56:18;0.70;99.90
50556;DHT22;36508;52.512;13.450;2022-11-20T07:58:43;0.60;99.90
50556;DHT22;36508;52.512;13.450;2022-11-20T08:01:09;0.60;99.90
50556;DHT22;36508;52.512;13.450;2022-11-20T08:03:35;0.60;99.90
50556;DHT22;36508;52.512;13.450;2022-11-20T08:06:03;0.60;99.90
50556;DHT22;36508;52.512;13.450;2022-11-20T08:08:29;0.60;99.90
50556;DHT22;36508;52.512;13.450;2022-11-20T08:11:17;0.60;99.90
50556;DHT22;36508;52.512;13.450;2022-11-20T08:14:01;0.50;99.90
50556;DHT22;36508;52.512;13.450;2022-11-20T08:16:43;0.50;99.90
50556;DHT22;36508;52.512;13.450;2022-11-20T08:19:10;0.60;99.90
50556;DHT22;36508;52.512;13.450;2022-11-20T08:21:35;0.60;99.90
50556;DHT22;36508;52.512;13.450;2022-11-20T08:24:01;0.60;99.90
50556;DHT22;36508;52.512;13.450;2022-11-20T08:26:27;0.70;99.90
50556;DHT22;36508;52.512;13.450;2022-11-20T08:28:56;0.90;99.90
50556;DHT22;36508;52.512;13.450;2022-11-20T08:31:23;1.00;99.90
50556;DHT22;36508;52.512;13.450;2022-11-20T08:33:50;1.00;99.90
50556;DHT22;36508;52.512;13.450;2022-11-20T08:36:16;1.00;99.90
50556;DHT22;36508;52.512;13.450;2022-11-20T08:38:42;0.90;99.90
50556;DHT22;36508;52.512;13.450;2022-11-20T08:41:11;0.80;99.90
50556;DHT22;36508;52.512;13.450;2022-11-20T08:43:50;0.80;99.90
50556;DHT22;36508;52.512;13.450;2022-11-20T08:46:16;0.80;99.90
50556;DHT22;36508;52.512;13.450;2022-11-20T08:48:42;0.90;99.90
50556;DHT22;36508;52.512;13.450;2022-11-20T08:51:08;0.90;99.90
50556;DHT22;36508;52.512;13.450;2022-11-20T08:53:33;0.90;99.90
50556;DHT22;36508;52.512;13.450;2022-11-20T08:55:59;0.80;99.90
50556;DHT22;36508;52.512;13.450;2022-11-20T08:58:25;0.80;99.90
50556;DHT22;36508;52.512;13.450;2022-11-20T09:00:52;0.90;99.90
50556;DHT22;36508;52.512;13.450;2022-11-20T09:03:17;0.90;99.90
50556;DHT22;36508;52.512;13.450;2022-11-20T09:05:43;0.90;99.90
50556;DHT22;36508;52.512;13.450;2022-11-20T09:08:09;1.00;99.90
50556;DHT22;36508;52.512;13.450;2022-11-20T09:10:34;1.10;99.90
50556;DHT22;36508;52.512;13.450;2022-11-20T09:13:00;1.10;99.90
50556;DHT22;36508;52.512;13.450;2022-11-20T09:15:27;1.10;99.90
50556;DHT22;36508;52.512;13.450;2022-11-20T09:18:11;1.00;99.90
50556;DHT22;36508;52.512;13.450;2022-11-20T09:20:36;1.00;99.90
50556;DHT22;36508;52.512;13.450;2022-11-20T09:23:02;1.00;99.90
50556;DHT22;36508;52.512;13.450;2022-11-20T09:25:28;1.00;99.90
50556;DHT22;36508;52.512;13.450;2022-11-20T09:27:59;1.00;99.90
50556;DHT22;36508;52.512;13.450;2022-11-20T09:33:43;1.10;99.90
50556;DHT22;36508;52.512;13.450;2022-11-20T09:36:09;1.20;99.90
50556;DHT22;36508;52.512;13.450;2022-11-20T09:38:34;1.10;99.90
50556;DHT22;36508;52.512;13.450;2022-11-20T09:41:05;1.10;99.90
50556;DHT22;36508;52.512;13.450;2022-11-20T09:43:51;1.20;99.90
50556;DHT22;36508;52.512;13.450;2022-11-20T09:46:29;1.20;99.90
50556;DHT22;36508;52.512;13.450;2022-11-20T09:49:14;1.20;99.90
50556;DHT22;36508;52.512;13.450;2022-11-20T09:51:58;1.10;99.90
50556;DHT22;36508;52.512;13.450;2022-11-20T09:54:39;1.10;99.90
50556;DHT22;36508;52.512;13.450;2022-11-20T09:57:11;1.10;99.90
50556;DHT22;36508;52.512;13.450;2022-11-20T09:59:56;1.10;99.90
50556;DHT22;36508;52.512;13.450;2022-11-20T10:02:48;1.20;99.90
50556;DHT22;36508;52.512;13.450;2022-11-20T10:05:22;1.30;99.90
50556;DHT22;36508;52.512;13.450;2022-11-20T10:10:47;1.40;99.90
50556;DHT22;36508;52.512;13.450;2022-11-20T10:30:13;1.70;99.90
50556;DHT22;36508;52.512;13.450;2022-11-20T10:32:45;1.60;99.90
50556;DHT22;36508;52.512;13.450;2022-11-20T10:35:28;1.60;99.90
50556;DHT22;36508;52.512;13.450;2022-11-20T10:38:00;1.30;99.90
50556;DHT22;36508;52.512;13.450;2022-11-20T10:40:46;1.20;99.90
50556;DHT22;36508;52.512;13.450;2022-11-20T10:43:28;1.20;99.90
50556;DHT22;36508;52.512;13.450;2022-11-20T10:46:10;1.20;99.90
50556;DHT22;36508;52.512;13.450;2022-11-20T10:48:41;1.40;99.90
50556;DHT22;36508;52.512;13.450;2022-11-20T10:54:07;1.40;99.90
50556;DHT22;36508;52.512;13.450;2022-11-20T10:56:47;1.40;99.90
50556;DHT22;36508;52.512;13.450;2022-11-20T11:02:19;1.70;99.90
50556;DHT22;36508;52.512;13.450;2022-11-20T11:04:52;1.80;99.90
50556;DHT22;36508;52.512;13.450;2022-11-20T11:07:29;2.10;99.90
50556;DHT22;36508;52.512;13.450;2022-11-20T11:09:57;2.30;99.90
50556;DHT22;36508;52.512;13.450;2022-11-20T11:12:25;2.10;99.90
50556;DHT22;36508;52.512;13.450;2022-11-20T11:14:53;2.30;99.90
50556;DHT22;36508;52.512;13.450;2022-11-20T11:17:32;2.60;99.90
50556;DHT22;36508;52.512;13.450;2022-11-20T11:19:58;2.60;99.90
50556;DHT22;36508;52.512;13.450;2022-11-20T11:22:24;2.60;99.90
50556;DHT22;36508;52.512;13.450;2022-11-20T11:24:53;2.50;99.90
50556;DHT22;36508;52.512;13.450;2022-11-20T11:27:19;2.40;99.90
50556;DHT22;36508;52.512;13.450;2022-11-20T11:29:48;2.40;99.90
50556;DHT22;36508;52.512;13.450;2022-11-20T11:32:22;2.50;99.90
50556;DHT22;36508;52.512;13.450;2022-11-20T11:35:05;2.30;99.90
50556;DHT22;36508;52.512;13.450;2022-11-20T11:37:38;2.10;99.90
50556;DHT22;36508;52.512;13.450;2022-11-20T11:40:06;2.30;99.90
50556;DHT22;36508;52.512;13.450;2022-11-20T11:42:35;2.40;99.90
50556;DHT22;36508;52.512;13.450;2022-11-20T11:45:06;2.50;99.90
50556;DHT22;36508;52.512;13.450;2022-11-20T11:55:14;2.20;99.90
50556;DHT22;36508;52.512;13.450;2022-11-20T12:00:27;2.00;99.90
50556;DHT22;36508;52.512;13.450;2022-11-20T12:03:12;2.00;99.90
50556;DHT22;36508;52.512;13.450;2022-11-20T12:05:53;2.00;99.90
50556;DHT22;36508;52.512;13.450;2022-11-20T12:08:29;1.80;99.90
50556;DHT22;36508;52.512;13.450;2022-11-20T12:11:17;1.80;99.90
50556;DHT22;36508;52.512;13.450;2022-11-20T12:14:14;1.90;99.90
50556;DHT22;36508;52.512;13.450;2022-11-20T12:16:42;1.80;99.90
50556;DHT22;36508;52.512;13.450;2022-11-20T12:19:12;1.80;99.90
50556;DHT22;36508;52.512;13.450;2022-11-20T12:25:10;1.80;99.90
50556;DHT22;36508;52.512;13.450;2022-11-20T12:28:06;1.90;99.90
50556;DHT22;36508;52.512;13.450;2022-11-20T12:30:41;2.10;99.90
50556;DHT22;36508;52.512;13.450;2022-11-20T12:36:08;2.40;99.90
50556;DHT22;36508;52.512;13.450;2022-11-20T12:39:07;2.40;99.90
50556;DHT22;36508;52.512;13.450;2022-11-20T12:44:50;2.50;99.90
50556;DHT22;36508;52.512;13.450;2022-11-20T12:47:51;2.60;99.90
50556;DHT22;36508;52.512;13.450;2022-11-20T12:53:10;2.80;99.90
50556;DHT22;36508;52.512;13.450;2022-11-20T12:56:02;3.00;99.90
50556;DHT22;36508;52.512;13.450;2022-11-20T12:58:40;3.00;99.90
50556;DHT22;36508;52.512;13.450;2022-11-20T13:07:05;2.40;99.90
50556;DHT22;36508;52.512;13.450;2022-11-20T13:09:32;2.30;99.90
50556;DHT22;36508;52.512;13.450;2022-11-20T13:14:58;2.40;99.90
50556;DHT22;36508;52.512;13.450;2022-11-20T13:17:43;2.40;99.90
50556;DHT22;36508;52.512;13.450;2022-11-20T13:20:16;2.40;99.90
50556;DHT22;36508;52.512;13.450;2022-11-20T13:22:52;2.50;99.90
50556;DHT22;36508;52.512;13.450;2022-11-20T13:25:30;2.60;99.90
50556;DHT22;36508;52.512;13.450;2022-11-20T13:27:59;2.60;99.90
50556;DHT22;36508;52.512;13.450;2022-11-20T13:30:26;2.60;99.90
50556;DHT22;36508;52.512;13.450;2022-11-20T13:32:57;2.40;99.90
50556;DHT22;36508;52.512;13.450;2022-11-20T13:35:28;2.40;99.90
50556;DHT22;36508;52.512;13.450;2022-11-20T13:38:05;2.30;99.90
50556;DHT22;36508;52.512;13.450;2022-11-20T13:40:31;2.10;99.90
50556;DHT22;36508;52.512;13.450;2022-11-20T13:43:01;2.00;99.90
50556;DHT22;36508;52.512;13.450;2022-11-20T13:45:30;2.00;99.90
50556;DHT22;36508;52.512;13.450;2022-11-20T13:47:58;2.00;99.90
50556;DHT22;36508;52.512;13.450;2022-11-20T13:51:12;2.10;99.90
50556;DHT22;36508;52.512;13.450;2022-11-20T14:02:15;2.00;99.90
50556;DHT22;36508;52.512;13.450;2022-11-20T14:04:53;1.90;99.90
50556;DHT22;36508;52.512;13.450;2022-11-20T14:07:23;1.90;99.90
50556;DHT22;36508;52.512;13.450;2022-11-20T14:09:55;1.90;99.90
50556;DHT22;36508;52.512;13.450;2022-11-20T14:12:29;1.90;99.90
50556;DHT22;36508;52.512;13.450;2022-11-20T14:14:55;1.80;99.90
50556;DHT22;36508;52.512;13.450;2022-11-20T14:17:31;1.80;99.90
50556;DHT22;36508;52.512;13.450;2022-11-20T14:20:04;1.70;99.90
50556;DHT22;36508;52.512;13.450;2022-11-20T14:22:31;1.70;99.90
50556;DHT22;36508;52.512;13.450;2022-11-20T14:27:40;1.80;99.90
50556;DHT22;36508;52.512;13.450;2022-11-20T14:30:15;1.80;99.90
50556;DHT22;36508;52.512;13.450;2022-11-20T14:32:42;1.80;99.90
50556;DHT22;36508;52.512;13.450;2022-11-20T14:35:44;1.90;99.90
50556;DHT22;36508;52.512;13.450;2022-11-20T14:38:03;1.80;99.90
50556;DHT22;36508;52.512;13.450;2022-11-20T14:40:33;1.80;99.90
50556;DHT22;36508;52.512;13.450;2022-11-20T14:45:44;1.60;99.90
50556;DHT22;36508;52.512;13.450;2022-11-20T14:48:13;1.60;99.90
50556;DHT22;36508;52.512;13.450;2022-11-20T14:50:39;1.60;99.90
50556;DHT22;36508;52.512;13.450;2022-11-20T14:53:05;1.50;99.90
50556;DHT22;36508;52.512;13.450;2022-11-20T14:55:36;1.50;99.90
50556;DHT22;36508;52.512;13.450;2022-11-20T14:58:19;1.60;99.90
50556;DHT22;36508;52.512;13.450;2022-11-20T15:00:57;1.60;99.90
50556;DHT22;36508;52.512;13.450;2022-11-20T15:03:23;1.60;99.90
50556;DHT22;36508;52.512;13.450;2022-11-20T15:05:55;1.60;99.90
50556;DHT22;36508;52.512;13.450;2022-11-20T15:08:21;1.50;99.90
50556;DHT22;36508;52.512;13.450;2022-11-20T15:10:49;1.50;99.90
50556;DHT22;36508;52.512;13.450;2022-11-20T15:13:37;1.50;99.90
50556;DHT22;36508;52.512;13.450;2022-11-20T15:16:12;1.50;99.90
50556;DHT22;36508;52.512;13.450;2022-11-20T15:18:41;1.60;99.90
50556;DHT22;36508;52.512;13.450;2022-11-20T15:21:11;1.60;99.90
50556;DHT22;36508;52.512;13.450;2022-11-20T15:23:37;1.50;99.90
50556;DHT22;36508;52.512;13.450;2022-11-20T15:26:07;1.50;99.90
50556;DHT22;36508;52.512;13.450;2022-11-20T15:28:39;1.50;99.90
50556;DHT22;36508;52.512;13.450;2022-11-20T15:31:05;1.50;99.90
50556;DHT22;36508;52.512;13.450;2022-11-20T15:33:32;1.50;99.90
50556;DHT22;36508;52.512;13.450;2022-11-20T15:35:59;1.60;99.90
50556;DHT22;36508;52.512;13.450;2022-11-20T15:38:25;1.60;99.90
50556;DHT22;36508;52.512;13.450;2022-11-20T15:40:51;1.50;99.90
50556;DHT22;36508;52.512;13.450;2022-11-20T15:43:16;1.50;99.90
50556;DHT22;36508;52.512;13.450;2022-11-20T15:45:47;1.50;99.90
50556;DHT22;36508;52.512;13.450;2022-11-20T15:48:20;1.50;99.90
50556;DHT22;36508;52.512;13.450;2022-11-20T15:53:33;1.60;99.90
50556;DHT22;36508;52.512;13.450;2022-11-20T15:55:58;1.60;99.90
50556;DHT22;36508;52.512;13.450;2022-11-20T15:58:24;1.60;99.90
50556;DHT22;36508;52.512;13.450;2022-11-20T16:00:50;1.60;99.90
50556;DHT22;36508;52.512;13.450;2022-11-20T16:03:16;1.60;99.90
50556;DHT22;36508;52.512;13.450;2022-11-20T16:05:42;1.60;99.90
50556;DHT22;36508;52.512;13.450;2022-11-20T16:08:08;1.50;99.90
50556;DHT22;36508;52.512;13.450;2022-11-20T16:10:34;1.40;99.90
50556;DHT22;36508;52.512;13.450;2022-11-20T16:12:59;1.40;99.90
50556;DHT22;36508;52.512;13.450;2022-11-20T16:15:54;1.30;99.90
50556;DHT22;36508;52.512;13.450;2022-11-20T16:18:22;1.20;99.90
50556;DHT22;36508;52.512;13.450;2022-11-20T16:20:50;1.20;99.90
50556;DHT22;36508;52.512;13.450;2022-11-20T16:23:16;1.10;99.90
50556;DHT22;36508;52.512;13.450;2022-11-20T16:25:42;1.10;99.90
50556;DHT22;36508;52.512;13.450;2022-11-20T16:28:08;1.10;99.90
50556;DHT22;36508;52.512;13.450;2022-11-20T16:30:34;1.00;99.90
50556;DHT22;36508;52.512;13.450;2022-11-20T16:33:01;1.10;99.90
50556;DHT22;36508;52.512;13.450;2022-11-20T16:35:28;1.00;99.90
50556;DHT22;36508;52.512;13.450;2022-11-20T16:37:55;1.00;99.90
50556;DHT22;36508;52.512;13.450;2022-11-20T16:40:21;1.00;99.90
50556;DHT22;36508;52.512;13.450;2022-11-20T16:42:47;1.00;99.90
50556;DHT22;36508;52.512;13.450;2022-11-20T16:45:12;1.00;99.90
50556;DHT22;36508;52.512;13.450;2022-11-20T16:47:38;0.90;99.90
50556;DHT22;36508;52.512;13.450;2022-11-20T16:50:05;0.90;99.90
50556;DHT22;36508;52.512;13.450;2022-11-20T16:52:30;0.90;99.90
50556;DHT22;36508;52.512;13.450;2022-11-20T16:54:57;0.90;99.90
50556;DHT22;36508;52.512;13.450;2022-11-20T16:57:23;0.90;99.90
50556;DHT22;36508;52.512;13.450;2022-11-20T16:59:48;0.90;99.90
50556;DHT22;36508;52.512;13.450;2022-11-20T17:02:14;0.90;99.90
50556;DHT22;36508;52.512;13.450;2022-11-20T17:04:40;0.90;99.90
50556;DHT22;36508;52.512;13.450;2022-11-20T17:07:06;0.90;99.90
50556;DHT22;36508;52.512;13.450;2022-11-20T17:09:32;1.00;99.90